Petropavlovsk-Kamchatskiy, Russia
Current Conditions -  °F | °C
As of 11:00 AM on Sunday 21 Dec 2014 (Local Time) from UHPP Reporting Station
Clear Clear  
Wind Chill: -11°   Ceiling: Unl
Heat Index:   Visibility: 6mi
Dew Point: -6°   Wind: 9mph
Humidity: 66%   Direction: 350°N
Pressure: 30"   Gusts: NA
Location:  53.02°N, 158.65°E
Report Text: UHPP 202300Z 35004MPS 9999 NSC M16/M21 Q1016 NOSIG RMKQFE759/1012 SC070
Loading
Personal Weather Stations






























Interactive Weather Map New forecast layout! Learn more

10-Day Weather Forecast

Advertisements
Track Severe Weather on mobile